Biloxi, MS

12:03 AM CST del 04 Dicembre 2016 (GMT -0600)
Forest Cove | | Change Station

Alt. 46 ft 30.44 °N, 88.91 °W | Updated 3 minutes ago

Overcast
Coperto
60.6 °F
Sembra 60.6 °F
N
4.2
Vento Variabile Vento da SE

Oggi
Massima -- | Minima -- °F
--% Possibilità di precip.
Ieri
Massima -- | Minima -- °F
Precip. -- in
Pressione 29.98 in
Visibilità 10.0 miglia
Nuvole Alcuni 2600 ft
Coperto 6000 ft
Punto di rugiada 46 °F
Umidità 59%
Piovosità in
Spessore del manto nevoso Non disponibile.
6:37 AM 4:54 PM
Luna crescente, 20% visible
METAR KBIX 040558Z AUTO 12013KT 10SM FEW026 OVC060 17/08 A2997 RMK AO2 SLP152 T01650078 10165 20155 401850107 57019
Pressione 29.98 in
Visibilità 10.0 miglia
Nuvole Alcuni 2600 ft
Coperto 6000 ft
Punto di rugiada 46 °F
Umidità 59%
Piovosità in
Spessore del manto nevoso Non disponibile.
6:37 AM 4:54 PM
Luna crescente, 20% visible
METAR KBIX 040558Z AUTO 12013KT 10SM FEW026 OVC060 17/08 A2997 RMK AO2 SLP152 T01650078 10165 20155 401850107 57019

10-Day Weather Forecast

Almanac

Astronomia

Dec. 04, 2016 Alba Tramonto
Ora attuale
Crepuscolo civile
Crepuscolo nautico
Crepuscolo astronomico
Luna
Estensione della luce visibile
Lunghezza del giorno
Tomorrow will be .
, % of the Moon is Illuminated

Gli estremi di oggi

State Highs State Lows

Community

WunderPhotos

Upload Photos

1,955,587 foto caricate!

WunderBlog® & News

Nearby

Qualità dell'aria

  Qualità dell'aria Indice AQ Inquinante
Not available.

Profondità neve

Stazione Profondità Altitudine

Attività sismica

Città  Distanza Mag. Data & Ora
Minimo Magnitudo Mostrato è 2.5.

Temperature delle acque costiere

Località Temperatura

Stations

Stazioni meteo nelle vicinanze

Ubicazione della stazione Temp. Raffreddamento del vento Punto di rugiada Umidità Vento Precip. Alt. Aggiornato Tipo
                   

Watches & Warnings

There are currently no watches in effect.